sensor_id;sensor_type;location;lat;lon;timestamp;P1;durP1;ratioP1;P2;durP2;ratioP2
36411;SDS011;22445;52.100;5.176;2023-05-10T00:01:21;54.38;;;25.85;;
36411;SDS011;22445;52.100;5.176;2023-05-10T00:03:47;54.95;;;24.90;;
36411;SDS011;22445;52.100;5.176;2023-05-10T00:06:12;63.28;;;27.92;;
36411;SDS011;22445;52.100;5.176;2023-05-10T00:08:38;64.07;;;29.17;;
36411;SDS011;22445;52.100;5.176;2023-05-10T00:11:03;63.65;;;29.33;;
36411;SDS011;22445;52.100;5.176;2023-05-10T00:13:29;59.15;;;23.75;;
36411;SDS011;22445;52.100;5.176;2023-05-10T00:15:55;89.07;;;27.38;;
36411;SDS011;22445;52.100;5.176;2023-05-10T00:18:20;53.55;;;26.98;;
36411;SDS011;22445;52.100;5.176;2023-05-10T00:20:46;44.97;;;16.55;;
36411;SDS011;22445;52.100;5.176;2023-05-10T00:23:12;95.82;;;30.58;;
36411;SDS011;22445;52.100;5.176;2023-05-10T00:25:37;75.53;;;30.30;;
36411;SDS011;22445;52.100;5.176;2023-05-10T00:28:03;95.25;;;35.40;;
36411;SDS011;22445;52.100;5.176;2023-05-10T00:30:28;56.90;;;26.13;;
36411;SDS011;22445;52.100;5.176;2023-05-10T00:32:54;90.60;;;34.83;;
36411;SDS011;22445;52.100;5.176;2023-05-10T00:35:20;69.07;;;30.02;;
36411;SDS011;22445;52.100;5.176;2023-05-10T00:37:46;110.75;;;32.28;;
36411;SDS011;22445;52.100;5.176;2023-05-10T00:40:12;84.97;;;35.10;;
36411;SDS011;22445;52.100;5.176;2023-05-10T00:42:38;116.18;;;36.65;;
36411;SDS011;22445;52.100;5.176;2023-05-10T00:45:03;127.05;;;42.75;;
36411;SDS011;22445;52.100;5.176;2023-05-10T00:47:29;136.65;;;44.20;;
36411;SDS011;22445;52.100;5.176;2023-05-10T00:49:55;122.00;;;43.13;;
36411;SDS011;22445;52.100;5.176;2023-05-10T00:52:21;120.75;;;43.05;;
36411;SDS011;22445;52.100;5.176;2023-05-10T00:54:49;121.35;;;40.35;;
36411;SDS011;22445;52.100;5.176;2023-05-10T00:57:16;128.70;;;43.85;;
36411;SDS011;22445;52.100;5.176;2023-05-10T00:59:42;117.10;;;41.60;;
36411;SDS011;22445;52.100;5.176;2023-05-10T01:02:07;139.73;;;44.65;;
36411;SDS011;22445;52.100;5.176;2023-05-10T01:04:33;139.88;;;44.92;;
36411;SDS011;22445;52.100;5.176;2023-05-10T01:07:00;178.55;;;50.10;;
36411;SDS011;22445;52.100;5.176;2023-05-10T01:09:26;153.30;;;44.92;;
36411;SDS011;22445;52.100;5.176;2023-05-10T01:11:52;162.30;;;43.83;;
36411;SDS011;22445;52.100;5.176;2023-05-10T01:14:18;142.10;;;43.25;;
36411;SDS011;22445;52.100;5.176;2023-05-10T01:16:45;164.05;;;46.42;;
36411;SDS011;22445;52.100;5.176;2023-05-10T01:19:33;142.68;;;43.13;;
36411;SDS011;22445;52.100;5.176;2023-05-10T01:28:13;135.30;;;42.10;;
36411;SDS011;22445;52.100;5.176;2023-05-10T01:34:16;148.57;;;43.00;;
36411;SDS011;22445;52.100;5.176;2023-05-10T01:36:45;150.80;;;44.85;;
36411;SDS011;22445;52.100;5.176;2023-05-10T01:39:22;150.95;;;45.03;;
36411;SDS011;22445;52.100;5.176;2023-05-10T01:42:08;152.27;;;44.33;;
36411;SDS011;22445;52.100;5.176;2023-05-10T01:47:42;165.85;;;45.60;;
36411;SDS011;22445;52.100;5.176;2023-05-10T01:50:18;143.05;;;44.35;;
36411;SDS011;22445;52.100;5.176;2023-05-10T01:52:51;155.95;;;45.47;;
36411;SDS011;22445;52.100;5.176;2023-05-10T01:55:20;187.77;;;47.95;;
36411;SDS011;22445;52.100;5.176;2023-05-10T01:57:46;183.82;;;46.92;;
36411;SDS011;22445;52.100;5.176;2023-05-10T02:00:13;200.23;;;48.30;;
36411;SDS011;22445;52.100;5.176;2023-05-10T02:02:40;184.30;;;45.25;;
36411;SDS011;22445;52.100;5.176;2023-05-10T02:05:12;179.65;;;44.42;;
36411;SDS011;22445;52.100;5.176;2023-05-10T02:07:38;177.98;;;46.15;;
36411;SDS011;22445;52.100;5.176;2023-05-10T02:10:04;186.98;;;44.75;;
36411;SDS011;22445;52.100;5.176;2023-05-10T02:12:34;191.25;;;45.47;;
36411;SDS011;22445;52.100;5.176;2023-05-10T02:15:02;202.05;;;47.65;;
36411;SDS011;22445;52.100;5.176;2023-05-10T02:17:30;206.52;;;46.90;;
36411;SDS011;22445;52.100;5.176;2023-05-10T02:19:57;194.13;;;46.30;;
36411;SDS011;22445;52.100;5.176;2023-05-10T02:22:24;179.48;;;43.58;;
36411;SDS011;22445;52.100;5.176;2023-05-10T02:24:51;262.13;;;48.95;;
36411;SDS011;22445;52.100;5.176;2023-05-10T02:27:17;189.75;;;44.22;;
36411;SDS011;22445;52.100;5.176;2023-05-10T02:29:44;233.25;;;47.58;;
36411;SDS011;22445;52.100;5.176;2023-05-10T02:32:09;206.35;;;46.42;;
36411;SDS011;22445;52.100;5.176;2023-05-10T02:34:36;197.48;;;47.10;;
36411;SDS011;22445;52.100;5.176;2023-05-10T02:37:02;212.82;;;46.20;;
36411;SDS011;22445;52.100;5.176;2023-05-10T02:39:28;226.43;;;47.58;;
36411;SDS011;22445;52.100;5.176;2023-05-10T02:41:55;195.43;;;48.17;;
36411;SDS011;22445;52.100;5.176;2023-05-10T02:44:22;210.75;;;46.17;;
36411;SDS011;22445;52.100;5.176;2023-05-10T02:46:47;206.15;;;49.05;;
36411;SDS011;22445;52.100;5.176;2023-05-10T02:49:13;195.50;;;50.05;;
36411;SDS011;22445;52.100;5.176;2023-05-10T02:51:51;197.43;;;51.72;;
36411;SDS011;22445;52.100;5.176;2023-05-10T02:54:20;222.88;;;51.50;;
36411;SDS011;22445;52.100;5.176;2023-05-10T02:56:59;198.85;;;52.40;;
36411;SDS011;22445;52.100;5.176;2023-05-10T02:59:26;198.27;;;51.67;;
36411;SDS011;22445;52.100;5.176;2023-05-10T03:01:52;208.70;;;56.47;;
36411;SDS011;22445;52.100;5.176;2023-05-10T03:04:17;197.88;;;53.03;;
36411;SDS011;22445;52.100;5.176;2023-05-10T03:06:43;230.23;;;58.63;;
36411;SDS011;22445;52.100;5.176;2023-05-10T03:09:09;204.95;;;54.80;;
36411;SDS011;22445;52.100;5.176;2023-05-10T03:11:52;199.73;;;55.65;;
36411;SDS011;22445;52.100;5.176;2023-05-10T03:14:49;199.25;;;54.72;;
36411;SDS011;22445;52.100;5.176;2023-05-10T03:17:28;183.02;;;52.67;;
36411;SDS011;22445;52.100;5.176;2023-05-10T03:20:06;189.30;;;52.35;;
36411;SDS011;22445;52.100;5.176;2023-05-10T03:22:50;184.10;;;51.90;;
36411;SDS011;22445;52.100;5.176;2023-05-10T03:25:19;211.70;;;53.05;;
36411;SDS011;22445;52.100;5.176;2023-05-10T03:27:46;197.00;;;49.25;;
36411;SDS011;22445;52.100;5.176;2023-05-10T03:30:12;197.23;;;48.30;;
36411;SDS011;22445;52.100;5.176;2023-05-10T03:32:38;195.27;;;52.28;;
36411;SDS011;22445;52.100;5.176;2023-05-10T03:35:10;219.90;;;53.28;;
36411;SDS011;22445;52.100;5.176;2023-05-10T03:37:38;235.27;;;54.83;;
36411;SDS011;22445;52.100;5.176;2023-05-10T03:40:04;215.57;;;53.70;;
36411;SDS011;22445;52.100;5.176;2023-05-10T03:42:30;199.70;;;51.05;;
36411;SDS011;22445;52.100;5.176;2023-05-10T03:44:55;195.68;;;49.45;;
36411;SDS011;22445;52.100;5.176;2023-05-10T03:47:21;212.57;;;53.42;;
36411;SDS011;22445;52.100;5.176;2023-05-10T03:49:47;201.38;;;50.90;;
36411;SDS011;22445;52.100;5.176;2023-05-10T03:52:13;192.20;;;48.00;;
36411;SDS011;22445;52.100;5.176;2023-05-10T03:54:39;229.40;;;53.92;;
36411;SDS011;22445;52.100;5.176;2023-05-10T03:57:04;181.40;;;48.13;;
36411;SDS011;22445;52.100;5.176;2023-05-10T03:59:30;212.23;;;52.33;;
36411;SDS011;22445;52.100;5.176;2023-05-10T04:01:56;178.30;;;49.35;;
36411;SDS011;22445;52.100;5.176;2023-05-10T04:04:22;177.57;;;49.78;;
36411;SDS011;22445;52.100;5.176;2023-05-10T04:06:48;190.73;;;49.25;;
36411;SDS011;22445;52.100;5.176;2023-05-10T04:09:14;186.27;;;50.28;;
36411;SDS011;22445;52.100;5.176;2023-05-10T04:11:40;206.75;;;51.15;;
36411;SDS011;22445;52.100;5.176;2023-05-10T04:14:05;183.43;;;48.35;;
36411;SDS011;22445;52.100;5.176;2023-05-10T04:16:31;192.98;;;52.47;;
36411;SDS011;22445;52.100;5.176;2023-05-10T04:18:56;165.73;;;46.70;;
36411;SDS011;22445;52.100;5.176;2023-05-10T04:21:22;173.77;;;47.25;;
36411;SDS011;22445;52.100;5.176;2023-05-10T04:23:47;160.93;;;47.30;;
36411;SDS011;22445;52.100;5.176;2023-05-10T04:26:13;171.65;;;50.22;;
36411;SDS011;22445;52.100;5.176;2023-05-10T04:28:39;154.15;;;45.70;;
36411;SDS011;22445;52.100;5.176;2023-05-10T04:31:05;171.00;;;49.72;;
36411;SDS011;22445;52.100;5.176;2023-05-10T04:33:32;183.02;;;49.88;;
36411;SDS011;22445;52.100;5.176;2023-05-10T04:35:58;182.73;;;51.58;;
36411;SDS011;22445;52.100;5.176;2023-05-10T04:38:24;143.00;;;47.40;;
36411;SDS011;22445;52.100;5.176;2023-05-10T04:40:50;176.20;;;51.42;;
36411;SDS011;22445;52.100;5.176;2023-05-10T04:43:16;172.43;;;49.03;;
36411;SDS011;22445;52.100;5.176;2023-05-10T04:45:41;160.65;;;49.72;;
36411;SDS011;22445;52.100;5.176;2023-05-10T04:48:07;169.13;;;52.58;;
36411;SDS011;22445;52.100;5.176;2023-05-10T04:50:33;140.60;;;48.83;;
36411;SDS011;22445;52.100;5.176;2023-05-10T04:52:58;146.60;;;49.42;;
36411;SDS011;22445;52.100;5.176;2023-05-10T04:55:24;140.43;;;47.72;;
36411;SDS011;22445;52.100;5.176;2023-05-10T04:57:50;125.53;;;48.65;;
36411;SDS011;22445;52.100;5.176;2023-05-10T05:00:15;131.20;;;46.40;;
36411;SDS011;22445;52.100;5.176;2023-05-10T05:02:42;125.18;;;45.45;;
36411;SDS011;22445;52.100;5.176;2023-05-10T05:05:09;151.85;;;51.40;;
36411;SDS011;22445;52.100;5.176;2023-05-10T05:07:35;147.38;;;51.70;;
36411;SDS011;22445;52.100;5.176;2023-05-10T05:10:00;146.10;;;51.92;;
36411;SDS011;22445;52.100;5.176;2023-05-10T05:12:26;139.02;;;50.42;;
36411;SDS011;22445;52.100;5.176;2023-05-10T05:14:51;134.88;;;48.85;;
36411;SDS011;22445;52.100;5.176;2023-05-10T05:17:17;129.07;;;49.15;;
36411;SDS011;22445;52.100;5.176;2023-05-10T05:19:43;132.73;;;48.22;;
36411;SDS011;22445;52.100;5.176;2023-05-10T05:22:08;121.85;;;45.53;;
36411;SDS011;22445;52.100;5.176;2023-05-10T05:24:37;128.93;;;46.33;;
36411;SDS011;22445;52.100;5.176;2023-05-10T05:27:03;132.27;;;46.70;;
36411;SDS011;22445;52.100;5.176;2023-05-10T05:29:29;120.43;;;42.42;;
36411;SDS011;22445;52.100;5.176;2023-05-10T05:31:54;123.57;;;43.78;;
36411;SDS011;22445;52.100;5.176;2023-05-10T05:34:20;122.68;;;41.58;;
36411;SDS011;22445;52.100;5.176;2023-05-10T05:36:46;103.57;;;41.00;;
36411;SDS011;22445;52.100;5.176;2023-05-10T05:39:12;118.53;;;41.40;;
36411;SDS011;22445;52.100;5.176;2023-05-10T05:41:38;109.20;;;42.85;;
36411;SDS011;22445;52.100;5.176;2023-05-10T05:44:03;122.35;;;44.95;;
36411;SDS011;22445;52.100;5.176;2023-05-10T05:46:29;132.10;;;45.45;;
36411;SDS011;22445;52.100;5.176;2023-05-10T05:48:54;127.95;;;46.03;;
36411;SDS011;22445;52.100;5.176;2023-05-10T05:51:20;115.28;;;44.25;;
36411;SDS011;22445;52.100;5.176;2023-05-10T05:53:46;110.43;;;42.53;;
36411;SDS011;22445;52.100;5.176;2023-05-10T05:56:11;118.80;;;44.72;;
36411;SDS011;22445;52.100;5.176;2023-05-10T05:58:37;101.00;;;39.17;;
36411;SDS011;22445;52.100;5.176;2023-05-10T06:01:02;100.57;;;38.90;;
36411;SDS011;22445;52.100;5.176;2023-05-10T06:03:28;92.03;;;35.72;;
36411;SDS011;22445;52.100;5.176;2023-05-10T06:05:53;84.10;;;34.47;;
36411;SDS011;22445;52.100;5.176;2023-05-10T06:08:19;88.07;;;33.75;;
36411;SDS011;22445;52.100;5.176;2023-05-10T06:10:45;82.80;;;30.83;;
36411;SDS011;22445;52.100;5.176;2023-05-10T06:13:11;70.72;;;29.42;;
36411;SDS011;22445;52.100;5.176;2023-05-10T06:15:36;64.32;;;27.00;;
36411;SDS011;22445;52.100;5.176;2023-05-10T06:18:02;63.13;;;26.48;;
36411;SDS011;22445;52.100;5.176;2023-05-10T06:20:28;48.55;;;23.30;;
36411;SDS011;22445;52.100;5.176;2023-05-10T06:22:53;43.42;;;22.15;;
36411;SDS011;22445;52.100;5.176;2023-05-10T06:25:19;40.38;;;18.77;;
36411;SDS011;22445;52.100;5.176;2023-05-10T06:27:45;34.15;;;18.42;;
36411;SDS011;22445;52.100;5.176;2023-05-10T06:30:10;35.47;;;17.15;;
36411;SDS011;22445;52.100;5.176;2023-05-10T06:32:38;33.25;;;16.35;;
36411;SDS011;22445;52.100;5.176;2023-05-10T06:35:04;32.80;;;16.20;;
36411;SDS011;22445;52.100;5.176;2023-05-10T06:37:30;29.10;;;15.25;;
36411;SDS011;22445;52.100;5.176;2023-05-10T06:39:55;25.15;;;14.98;;
36411;SDS011;22445;52.100;5.176;2023-05-10T06:42:21;22.40;;;13.50;;
36411;SDS011;22445;52.100;5.176;2023-05-10T06:44:46;24.52;;;13.20;;
36411;SDS011;22445;52.100;5.176;2023-05-10T06:47:12;20.48;;;13.35;;
36411;SDS011;22445;52.100;5.176;2023-05-10T06:49:37;18.33;;;11.93;;
36411;SDS011;22445;52.100;5.176;2023-05-10T06:52:03;19.77;;;12.18;;
36411;SDS011;22445;52.100;5.176;2023-05-10T06:54:29;21.55;;;12.30;;
36411;SDS011;22445;52.100;5.176;2023-05-10T06:56:54;15.82;;;12.02;;
36411;SDS011;22445;52.100;5.176;2023-05-10T06:59:20;15.50;;;11.55;;
36411;SDS011;22445;52.100;5.176;2023-05-10T07:01:46;17.33;;;12.20;;
36411;SDS011;22445;52.100;5.176;2023-05-10T07:04:12;18.30;;;11.40;;
36411;SDS011;22445;52.100;5.176;2023-05-10T07:06:38;18.77;;;11.23;;
36411;SDS011;22445;52.100;5.176;2023-05-10T07:09:04;15.00;;;9.98;;
36411;SDS011;22445;52.100;5.176;2023-05-10T07:11:29;16.70;;;10.57;;
36411;SDS011;22445;52.100;5.176;2023-05-10T07:13:55;12.30;;;9.27;;
36411;SDS011;22445;52.100;5.176;2023-05-10T07:16:21;13.27;;;10.10;;
36411;SDS011;22445;52.100;5.176;2023-05-10T07:18:46;14.18;;;9.70;;
36411;SDS011;22445;52.100;5.176;2023-05-10T07:21:12;12.65;;;8.80;;
36411;SDS011;22445;52.100;5.176;2023-05-10T07:23:37;11.40;;;8.77;;
36411;SDS011;22445;52.100;5.176;2023-05-10T07:26:03;13.93;;;10.48;;
36411;SDS011;22445;52.100;5.176;2023-05-10T07:28:29;12.57;;;9.50;;
36411;SDS011;22445;52.100;5.176;2023-05-10T07:30:54;12.35;;;9.15;;
36411;SDS011;22445;52.100;5.176;2023-05-10T07:33:20;11.73;;;8.35;;
36411;SDS011;22445;52.100;5.176;2023-05-10T07:35:45;10.73;;;8.38;;
36411;SDS011;22445;52.100;5.176;2023-05-10T07:38:11;11.98;;;8.25;;
36411;SDS011;22445;52.100;5.176;2023-05-10T07:40:36;13.20;;;7.88;;
36411;SDS011;22445;52.100;5.176;2023-05-10T07:43:03;12.68;;;8.52;;
36411;SDS011;22445;52.100;5.176;2023-05-10T07:45:29;13.50;;;9.18;;
36411;SDS011;22445;52.100;5.176;2023-05-10T07:47:54;13.10;;;8.93;;
36411;SDS011;22445;52.100;5.176;2023-05-10T07:50:20;11.85;;;9.70;;
36411;SDS011;22445;52.100;5.176;2023-05-10T07:52:46;11.05;;;8.23;;
36411;SDS011;22445;52.100;5.176;2023-05-10T07:55:13;13.25;;;9.40;;
36411;SDS011;22445;52.100;5.176;2023-05-10T07:57:38;10.80;;;8.40;;
36411;SDS011;22445;52.100;5.176;2023-05-10T08:00:05;13.80;;;8.65;;
36411;SDS011;22445;52.100;5.176;2023-05-10T08:02:31;12.27;;;8.45;;
36411;SDS011;22445;52.100;5.176;2023-05-10T08:04:57;12.73;;;8.80;;
36411;SDS011;22445;52.100;5.176;2023-05-10T08:07:24;12.02;;;8.70;;
36411;SDS011;22445;52.100;5.176;2023-05-10T08:09:50;12.80;;;8.57;;
36411;SDS011;22445;52.100;5.176;2023-05-10T08:12:15;11.00;;;8.30;;
36411;SDS011;22445;52.100;5.176;2023-05-10T08:14:41;11.38;;;8.15;;
36411;SDS011;22445;52.100;5.176;2023-05-10T08:17:06;14.93;;;8.75;;
36411;SDS011;22445;52.100;5.176;2023-05-10T08:19:32;11.57;;;8.32;;
36411;SDS011;22445;52.100;5.176;2023-05-10T08:21:57;13.60;;;8.48;;
36411;SDS011;22445;52.100;5.176;2023-05-10T08:24:23;12.90;;;9.07;;
36411;SDS011;22445;52.100;5.176;2023-05-10T08:26:48;11.65;;;8.15;;
36411;SDS011;22445;52.100;5.176;2023-05-10T08:29:14;9.70;;;7.50;;
36411;SDS011;22445;52.100;5.176;2023-05-10T08:31:40;10.48;;;8.52;;
36411;SDS011;22445;52.100;5.176;2023-05-10T08:34:06;12.27;;;8.75;;
36411;SDS011;22445;52.100;5.176;2023-05-10T08:36:31;12.10;;;8.45;;
36411;SDS011;22445;52.100;5.176;2023-05-10T08:38:57;10.25;;;8.30;;
36411;SDS011;22445;52.100;5.176;2023-05-10T08:41:23;9.63;;;8.43;;
36411;SDS011;22445;52.100;5.176;2023-05-10T08:43:51;11.48;;;8.80;;
36411;SDS011;22445;52.100;5.176;2023-05-10T08:46:19;9.98;;;7.65;;
36411;SDS011;22445;52.100;5.176;2023-05-10T08:48:45;10.90;;;8.20;;
36411;SDS011;22445;52.100;5.176;2023-05-10T08:51:13;12.40;;;8.13;;
36411;SDS011;22445;52.100;5.176;2023-05-10T08:53:40;10.35;;;8.50;;
36411;SDS011;22445;52.100;5.176;2023-05-10T08:56:05;9.57;;;7.10;;
36411;SDS011;22445;52.100;5.176;2023-05-10T08:58:31;9.20;;;7.85;;
36411;SDS011;22445;52.100;5.176;2023-05-10T09:00:57;8.77;;;7.45;;
36411;SDS011;22445;52.100;5.176;2023-05-10T09:03:23;8.63;;;6.80;;
36411;SDS011;22445;52.100;5.176;2023-05-10T09:05:49;8.32;;;7.35;;
36411;SDS011;22445;52.100;5.176;2023-05-10T09:08:15;9.13;;;6.90;;
36411;SDS011;22445;52.100;5.176;2023-05-10T09:10:44;10.90;;;7.82;;
36411;SDS011;22445;52.100;5.176;2023-05-10T09:13:12;11.00;;;8.02;;
36411;SDS011;22445;52.100;5.176;2023-05-10T09:15:40;8.93;;;7.75;;
36411;SDS011;22445;52.100;5.176;2023-05-10T09:18:05;10.80;;;6.90;;
36411;SDS011;22445;52.100;5.176;2023-05-10T09:20:31;12.05;;;8.15;;
36411;SDS011;22445;52.100;5.176;2023-05-10T09:22:56;10.25;;;7.40;;
36411;SDS011;22445;52.100;5.176;2023-05-10T09:25:22;11.02;;;7.82;;
36411;SDS011;22445;52.100;5.176;2023-05-10T09:27:48;9.02;;;7.07;;
36411;SDS011;22445;52.100;5.176;2023-05-10T09:30:17;8.23;;;6.03;;
36411;SDS011;22445;52.100;5.176;2023-05-10T09:32:48;7.20;;;6.10;;
36411;SDS011;22445;52.100;5.176;2023-05-10T09:35:16;6.97;;;5.95;;
36411;SDS011;22445;52.100;5.176;2023-05-10T09:37:43;7.60;;;5.07;;
36411;SDS011;22445;52.100;5.176;2023-05-10T09:40:16;5.28;;;4.78;;
36411;SDS011;22445;52.100;5.176;2023-05-10T09:42:43;7.25;;;4.78;;
36411;SDS011;22445;52.100;5.176;2023-05-10T09:45:19;7.05;;;4.47;;
36411;SDS011;22445;52.100;5.176;2023-05-10T09:47:46;5.40;;;4.85;;
36411;SDS011;22445;52.100;5.176;2023-05-10T09:50:12;6.63;;;4.60;;
36411;SDS011;22445;52.100;5.176;2023-05-10T09:55:24;4.25;;;3.67;;
36411;SDS011;22445;52.100;5.176;2023-05-10T09:58:14;7.47;;;4.30;;
36411;SDS011;22445;52.100;5.176;2023-05-10T10:00:41;5.03;;;4.32;;
36411;SDS011;22445;52.100;5.176;2023-05-10T10:03:18;7.85;;;4.80;;
36411;SDS011;22445;52.100;5.176;2023-05-10T10:05:45;5.20;;;4.03;;
36411;SDS011;22445;52.100;5.176;2023-05-10T10:08:12;5.43;;;3.75;;
36411;SDS011;22445;52.100;5.176;2023-05-10T10:10:38;4.93;;;3.40;;
36411;SDS011;22445;52.100;5.176;2023-05-10T10:13:05;4.10;;;3.53;;
36411;SDS011;22445;52.100;5.176;2023-05-10T10:15:31;3.72;;;3.08;;
36411;SDS011;22445;52.100;5.176;2023-05-10T10:17:58;3.33;;;3.03;;
36411;SDS011;22445;52.100;5.176;2023-05-10T10:20:24;6.50;;;3.15;;
36411;SDS011;22445;52.100;5.176;2023-05-10T10:22:50;4.28;;;3.67;;
36411;SDS011;22445;52.100;5.176;2023-05-10T10:25:16;4.70;;;3.42;;
36411;SDS011;22445;52.100;5.176;2023-05-10T10:30:47;5.60;;;4.45;;
36411;SDS011;22445;52.100;5.176;2023-05-10T10:36:17;5.28;;;3.92;;
36411;SDS011;22445;52.100;5.176;2023-05-10T10:41:36;7.22;;;4.40;;
36411;SDS011;22445;52.100;5.176;2023-05-10T10:52:46;6.10;;;5.10;;
36411;SDS011;22445;52.100;5.176;2023-05-10T10:55:16;7.55;;;5.03;;
36411;SDS011;22445;52.100;5.176;2023-05-10T11:03:18;4.78;;;4.13;;
36411;SDS011;22445;52.100;5.176;2023-05-10T11:05:46;6.38;;;4.80;;
36411;SDS011;22445;52.100;5.176;2023-05-10T11:11:08;5.85;;;4.20;;
36411;SDS011;22445;52.100;5.176;2023-05-10T11:13:38;4.97;;;3.45;;
36411;SDS011;22445;52.100;5.176;2023-05-10T11:16:24;4.05;;;3.60;;
36411;SDS011;22445;52.100;5.176;2023-05-10T11:18:57;4.28;;;3.40;;
36411;SDS011;22445;52.100;5.176;2023-05-10T11:22:11;4.18;;;3.25;;
36411;SDS011;22445;52.100;5.176;2023-05-10T11:24:55;3.70;;;3.20;;
36411;SDS011;22445;52.100;5.176;2023-05-10T11:27:23;5.03;;;2.88;;
36411;SDS011;22445;52.100;5.176;2023-05-10T11:29:51;4.53;;;3.40;;
36411;SDS011;22445;52.100;5.176;2023-05-10T11:32:17;4.47;;;3.13;;
36411;SDS011;22445;52.100;5.176;2023-05-10T11:34:46;3.55;;;2.53;;
36411;SDS011;22445;52.100;5.176;2023-05-10T11:37:13;3.65;;;2.90;;
36411;SDS011;22445;52.100;5.176;2023-05-10T11:39:38;7.07;;;2.70;;
36411;SDS011;22445;52.100;5.176;2023-05-10T11:42:04;3.38;;;2.13;;
36411;SDS011;22445;52.100;5.176;2023-05-10T11:44:30;2.63;;;2.42;;
36411;SDS011;22445;52.100;5.176;2023-05-10T11:46:58;2.85;;;2.10;;
36411;SDS011;22445;52.100;5.176;2023-05-10T11:49:24;2.78;;;2.30;;
36411;SDS011;22445;52.100;5.176;2023-05-10T11:51:51;2.20;;;1.55;;
36411;SDS011;22445;52.100;5.176;2023-05-10T11:54:16;3.38;;;2.20;;
36411;SDS011;22445;52.100;5.176;2023-05-10T11:56:42;3.03;;;2.33;;
36411;SDS011;22445;52.100;5.176;2023-05-10T11:59:07;2.97;;;1.65;;
36411;SDS011;22445;52.100;5.176;2023-05-10T12:01:33;3.80;;;2.40;;
36411;SDS011;22445;52.100;5.176;2023-05-10T12:03:59;3.38;;;2.33;;
36411;SDS011;22445;52.100;5.176;2023-05-10T12:06:26;3.58;;;2.58;;
36411;SDS011;22445;52.100;5.176;2023-05-10T12:08:53;2.95;;;2.53;;
36411;SDS011;22445;52.100;5.176;2023-05-10T12:11:19;3.28;;;2.65;;
36411;SDS011;22445;52.100;5.176;2023-05-10T12:13:46;3.83;;;2.97;;
36411;SDS011;22445;52.100;5.176;2023-05-10T12:16:22;3.55;;;3.25;;
36411;SDS011;22445;52.100;5.176;2023-05-10T12:18:49;4.10;;;2.85;;
36411;SDS011;22445;52.100;5.176;2023-05-10T12:21:20;2.80;;;2.30;;
36411;SDS011;22445;52.100;5.176;2023-05-10T12:23:46;3.42;;;2.50;;
36411;SDS011;22445;52.100;5.176;2023-05-10T12:26:13;3.10;;;2.80;;
36411;SDS011;22445;52.100;5.176;2023-05-10T12:28:39;5.53;;;3.75;;
36411;SDS011;22445;52.100;5.176;2023-05-10T12:31:05;5.85;;;5.25;;
36411;SDS011;22445;52.100;5.176;2023-05-10T12:33:49;6.72;;;5.28;;
36411;SDS011;22445;52.100;5.176;2023-05-10T12:36:15;6.70;;;5.93;;
36411;SDS011;22445;52.100;5.176;2023-05-10T12:38:42;8.60;;;5.95;;
36411;SDS011;22445;52.100;5.176;2023-05-10T12:41:09;11.35;;;7.22;;
36411;SDS011;22445;52.100;5.176;2023-05-10T12:43:36;14.35;;;8.40;;
36411;SDS011;22445;52.100;5.176;2023-05-10T12:46:06;18.92;;;10.75;;
36411;SDS011;22445;52.100;5.176;2023-05-10T12:48:52;20.05;;;11.13;;
36411;SDS011;22445;52.100;5.176;2023-05-10T12:51:20;20.80;;;11.15;;
36411;SDS011;22445;52.100;5.176;2023-05-10T12:53:47;27.23;;;11.88;;
36411;SDS011;22445;52.100;5.176;2023-05-10T12:56:13;20.85;;;12.15;;
36411;SDS011;22445;52.100;5.176;2023-05-10T12:58:38;22.58;;;12.48;;
36411;SDS011;22445;52.100;5.176;2023-05-10T13:01:04;24.73;;;13.05;;
36411;SDS011;22445;52.100;5.176;2023-05-10T13:03:30;23.00;;;12.68;;
36411;SDS011;22445;52.100;5.176;2023-05-10T13:05:55;22.70;;;12.82;;
36411;SDS011;22445;52.100;5.176;2023-05-10T13:08:21;21.90;;;12.07;;
36411;SDS011;22445;52.100;5.176;2023-05-10T13:10:46;22.55;;;12.60;;
36411;SDS011;22445;52.100;5.176;2023-05-10T13:13:12;19.40;;;12.20;;
36411;SDS011;22445;52.100;5.176;2023-05-10T13:15:37;21.20;;;13.93;;
36411;SDS011;22445;52.100;5.176;2023-05-10T13:18:03;24.80;;;14.32;;
36411;SDS011;22445;52.100;5.176;2023-05-10T13:20:29;25.33;;;14.82;;
36411;SDS011;22445;52.100;5.176;2023-05-10T13:22:54;22.38;;;13.23;;
36411;SDS011;22445;52.100;5.176;2023-05-10T13:25:20;21.67;;;13.27;;
36411;SDS011;22445;52.100;5.176;2023-05-10T13:27:45;27.83;;;14.80;;
36411;SDS011;22445;52.100;5.176;2023-05-10T13:30:11;21.67;;;13.32;;
36411;SDS011;22445;52.100;5.176;2023-05-10T13:32:37;25.17;;;12.95;;
36411;SDS011;22445;52.100;5.176;2023-05-10T13:35:02;30.75;;;14.13;;
36411;SDS011;22445;52.100;5.176;2023-05-10T13:37:29;24.80;;;13.75;;
36411;SDS011;22445;52.100;5.176;2023-05-10T13:39:55;17.38;;;10.38;;
36411;SDS011;22445;52.100;5.176;2023-05-10T13:42:21;17.30;;;11.38;;
36411;SDS011;22445;52.100;5.176;2023-05-10T13:44:48;19.88;;;11.18;;
36411;SDS011;22445;52.100;5.176;2023-05-10T13:47:13;16.33;;;10.88;;
36411;SDS011;22445;52.100;5.176;2023-05-10T13:49:39;17.15;;;10.73;;
36411;SDS011;22445;52.100;5.176;2023-05-10T13:52:04;17.30;;;11.10;;
36411;SDS011;22445;52.100;5.176;2023-05-10T13:54:35;18.25;;;11.15;;
36411;SDS011;22445;52.100;5.176;2023-05-10T13:57:02;19.38;;;11.48;;
36411;SDS011;22445;52.100;5.176;2023-05-10T13:59:28;18.27;;;10.95;;
36411;SDS011;22445;52.100;5.176;2023-05-10T14:01:53;19.45;;;11.27;;
36411;SDS011;22445;52.100;5.176;2023-05-10T14:04:19;14.50;;;9.73;;
36411;SDS011;22445;52.100;5.176;2023-05-10T14:06:45;18.77;;;11.65;;
36411;SDS011;22445;52.100;5.176;2023-05-10T14:09:12;17.13;;;9.93;;
36411;SDS011;22445;52.100;5.176;2023-05-10T14:11:37;14.90;;;9.77;;
36411;SDS011;22445;52.100;5.176;2023-05-10T14:14:06;14.43;;;9.45;;
36411;SDS011;22445;52.100;5.176;2023-05-10T14:16:32;13.85;;;9.10;;
36411;SDS011;22445;52.100;5.176;2023-05-10T14:18:58;11.75;;;8.60;;
36411;SDS011;22445;52.100;5.176;2023-05-10T14:21:23;9.50;;;6.75;;
36411;SDS011;22445;52.100;5.176;2023-05-10T14:23:49;9.07;;;7.15;;
36411;SDS011;22445;52.100;5.176;2023-05-10T14:26:15;10.57;;;7.63;;
36411;SDS011;22445;52.100;5.176;2023-05-10T14:28:40;10.38;;;7.72;;
36411;SDS011;22445;52.100;5.176;2023-05-10T14:31:06;10.88;;;6.85;;
36411;SDS011;22445;52.100;5.176;2023-05-10T14:33:31;10.07;;;7.03;;
36411;SDS011;22445;52.100;5.176;2023-05-10T14:35:57;9.88;;;7.63;;
36411;SDS011;22445;52.100;5.176;2023-05-10T14:38:22;11.30;;;7.30;;
36411;SDS011;22445;52.100;5.176;2023-05-10T14:40:48;9.63;;;7.03;;
36411;SDS011;22445;52.100;5.176;2023-05-10T14:43:14;8.95;;;6.55;;
36411;SDS011;22445;52.100;5.176;2023-05-10T14:45:39;9.40;;;7.00;;
36411;SDS011;22445;52.100;5.176;2023-05-10T14:48:05;9.70;;;6.63;;
36411;SDS011;22445;52.100;5.176;2023-05-10T14:50:31;9.52;;;7.38;;
36411;SDS011;22445;52.100;5.176;2023-05-10T14:52:57;10.50;;;7.00;;
36411;SDS011;22445;52.100;5.176;2023-05-10T14:55:23;11.77;;;7.32;;
36411;SDS011;22445;52.100;5.176;2023-05-10T14:57:49;8.07;;;6.10;;
36411;SDS011;22445;52.100;5.176;2023-05-10T15:00:15;9.25;;;6.35;;
36411;SDS011;22445;52.100;5.176;2023-05-10T15:02:41;9.15;;;6.70;;
36411;SDS011;22445;52.100;5.176;2023-05-10T15:05:07;7.88;;;6.90;;
36411;SDS011;22445;52.100;5.176;2023-05-10T15:07:32;10.40;;;6.25;;